createdAt,value
2023-04-22T00:00:31.036Z,11.5000
2023-04-22T00:01:39.090Z,11.7714
2023-04-22T00:02:47.128Z,12.0571
2023-04-22T00:03:55.207Z,12.2286
2023-04-22T00:05:03.353Z,10.5143
2023-04-22T00:06:11.530Z,9.7214
2023-04-22T00:07:19.420Z,9.3500
2023-04-22T00:08:27.473Z,8.7929
2023-04-22T00:09:35.634Z,9.2429
2023-04-22T00:10:43.558Z,9.4786
2023-04-22T00:11:51.685Z,10.3643
2023-04-22T00:12:59.766Z,13.0000
2023-04-22T00:14:07.782Z,10.9857
2023-04-22T00:15:16.042Z,8.6786
2023-04-22T00:16:23.916Z,9.3571
2023-04-22T00:17:32.025Z,10.3214
2023-04-22T00:18:39.899Z,9.1929
2023-04-22T00:19:47.949Z,9.4571
2023-04-22T00:20:56.179Z,10.2786
2023-04-22T00:22:04.229Z,10.0143
2023-04-22T00:23:12.347Z,9.7571
2023-04-22T00:24:20.343Z,9.5000
2023-04-22T00:25:28.427Z,10.3357
2023-04-22T00:26:36.554Z,9.5286
2023-04-22T00:27:44.422Z,9.6071
2023-04-22T00:28:52.659Z,9.9571
2023-04-22T00:30:00.708Z,10.1357
2023-04-22T00:31:08.804Z,8.9929
2023-04-22T00:32:16.704Z,7.6857
2023-04-22T00:33:24.747Z,9.1857
2023-04-22T00:34:32.806Z,10.2786
2023-04-22T00:35:41.640Z,11.9286
2023-04-22T00:36:49.030Z,10.5000
2023-04-22T00:37:57.218Z,13.0214
2023-04-22T00:39:05.212Z,17.1643
2023-04-22T00:40:13.320Z,19.0571
2023-04-22T00:41:21.329Z,19.5643
2023-04-22T00:42:29.438Z,16.5143
2023-04-22T00:43:37.479Z,15.6786
2023-04-22T00:44:45.547Z,14.4857
2023-04-22T00:45:53.741Z,13.0429
2023-04-22T00:47:01.595Z,13.1500
2023-04-22T00:48:09.699Z,13.4643
2023-04-22T00:49:17.677Z,14.1571
2023-04-22T00:50:26.117Z,13.9143
2023-04-22T00:51:33.989Z,14.6000
2023-04-22T00:52:42.014Z,15.4143
2023-04-22T00:53:50.044Z,15.6571
2023-04-22T00:54:58.139Z,13.7786
2023-04-22T00:56:06.198Z,12.4214
2023-04-22T00:57:14.355Z,13.4857
2023-04-22T00:58:22.291Z,12.3643
2023-04-22T00:59:30.398Z,11.4214
2023-04-22T01:00:38.460Z,13.2357
2023-04-22T01:01:46.442Z,11.5929
2023-04-22T01:02:54.597Z,13.9643
2023-04-22T01:04:02.627Z,11.9000
2023-04-22T01:05:10.954Z,10.5429
2023-04-22T01:06:18.746Z,9.7214
2023-04-22T01:07:26.957Z,10.5143
2023-04-22T01:08:34.930Z,12.7857
2023-04-22T01:09:43.050Z,13.9429
2023-04-22T01:10:51.052Z,12.8357
2023-04-22T01:11:59.112Z,13.2071
2023-04-22T01:13:07.213Z,13.4571
2023-04-22T01:14:15.234Z,11.5714
2023-04-22T01:15:23.305Z,11.4000
2023-04-22T01:16:31.360Z,12.2500
2023-04-22T01:17:39.389Z,11.1286
2023-04-22T01:18:47.388Z,11.2143
2023-04-22T01:19:55.593Z,11.2000
2023-04-22T01:21:03.823Z,11.9571
2023-04-22T01:22:11.947Z,10.0857
2023-04-22T01:23:19.765Z,12.1786
2023-04-22T01:24:27.930Z,9.8143
2023-04-22T01:25:35.896Z,9.9786
2023-04-22T01:26:43.951Z,9.9714
2023-04-22T01:27:52.196Z,10.1857
2023-04-22T01:29:00.121Z,10.2571
2023-04-22T01:30:08.221Z,9.7286
2023-04-22T01:31:16.094Z,9.3214
2023-04-22T01:32:24.203Z,8.5929
2023-04-22T01:33:32.222Z,11.6929
2023-04-22T01:34:40.372Z,11.5429
2023-04-22T01:35:48.604Z,11.2000
2023-04-22T01:36:56.690Z,13.7357
2023-04-22T01:38:04.603Z,15.7357
2023-04-22T01:39:12.720Z,15.8571
2023-04-22T01:40:20.762Z,18.5357
2023-04-22T01:41:28.815Z,15.8643
2023-04-22T01:42:36.873Z,15.8000
2023-04-22T01:43:44.958Z,17.2357
2023-04-22T01:44:53.169Z,15.2786
2023-04-22T01:46:00.944Z,16.1643
2023-04-22T01:47:09.042Z,14.8071
2023-04-22T01:48:17.083Z,15.2714
2023-04-22T01:49:25.255Z,14.3786
2023-04-22T01:50:33.336Z,12.7357
2023-04-22T01:51:41.456Z,13.7857
2023-04-22T01:52:49.618Z,13.4786
2023-04-22T01:53:57.491Z,12.1929
2023-04-22T01:55:05.586Z,13.2071
2023-04-22T01:56:13.641Z,15.3143
2023-04-22T01:57:21.750Z,12.7643
2023-04-22T01:58:29.840Z,13.9857
2023-04-22T01:59:38.194Z,14.6286
2023-04-22T02:00:45.792Z,12.5429
2023-04-22T02:01:53.879Z,15.1143
2023-04-22T02:03:02.282Z,14.5214
2023-04-22T02:04:10.181Z,14.9000
2023-04-22T02:05:18.232Z,13.4286
2023-04-22T02:06:26.329Z,14.8929
2023-04-22T02:07:34.374Z,12.6357
2023-04-22T02:08:42.636Z,12.5786
2023-04-22T02:09:50.977Z,15.2286
2023-04-22T02:10:58.619Z,15.8143
2023-04-22T02:12:06.654Z,14.6857
2023-04-22T02:13:14.722Z,12.6643
2023-04-22T02:14:22.792Z,15.2429
2023-04-22T02:15:30.716Z,17.1929
2023-04-22T02:16:38.798Z,16.3929
2023-04-22T02:17:46.818Z,15.8571
2023-04-22T02:18:55.143Z,14.3571
2023-04-22T02:20:03.166Z,14.3071
2023-04-22T02:21:11.388Z,13.5286
2023-04-22T02:22:19.272Z,13.7000
2023-04-22T02:23:27.294Z,14.2571
2023-04-22T02:24:35.549Z,14.8071
2023-04-22T02:25:43.412Z,14.6500
2023-04-22T02:26:51.490Z,17.0357
2023-04-22T02:27:59.535Z,17.7000
2023-04-22T02:29:07.609Z,18.2286
2023-04-22T02:30:15.648Z,19.6500
2023-04-22T02:31:23.614Z,20.9857
2023-04-22T02:32:31.792Z,18.7429
2023-04-22T02:33:39.907Z,17.6643
2023-04-22T02:34:47.954Z,18.7500
2023-04-22T02:35:56.124Z,20.1500
2023-04-22T02:37:04.084Z,18.6429
2023-04-22T02:38:12.261Z,21.7571
2023-04-22T02:39:20.239Z,19.5429
2023-04-22T02:40:28.399Z,20.5571
2023-04-22T02:41:36.450Z,17.9500
2023-04-22T02:42:44.403Z,15.6571
2023-04-22T02:43:52.497Z,15.2286
2023-04-22T02:45:00.439Z,17.2071
2023-04-22T02:46:08.518Z,16.7857
2023-04-22T02:47:16.587Z,15.8429
2023-04-22T02:48:24.777Z,19.5643
2023-04-22T02:49:32.854Z,19.0500
2023-04-22T02:50:40.949Z,22.5143
2023-04-22T02:51:49.022Z,23.7571
2023-04-22T02:52:57.125Z,26.4714
2023-04-22T02:54:05.191Z,22.2857
2023-04-22T02:55:13.248Z,26.3929
2023-04-22T02:56:21.267Z,25.8429
2023-04-22T02:57:29.518Z,27.8786
2023-04-22T02:58:37.509Z,25.7286
2023-04-22T02:59:45.345Z,27.8643
2023-04-22T03:00:53.440Z,24.9929
2023-04-22T03:02:01.714Z,25.9000
2023-04-22T03:03:09.819Z,27.4214
2023-04-22T03:04:17.843Z,28.1286
2023-04-22T03:05:25.838Z,30.8786
2023-04-22T03:06:33.886Z,29.7857
2023-04-22T03:07:41.961Z,27.8143
2023-04-22T03:08:50.070Z,26.2357
2023-04-22T03:09:58.292Z,25.3071
2023-04-22T03:11:06.125Z,21.2857
2023-04-22T03:12:14.222Z,23.6929
2023-04-22T03:13:22.273Z,22.2286
2023-04-22T03:14:30.252Z,22.0214
2023-04-22T03:15:38.294Z,25.7357
2023-04-22T03:16:46.378Z,27.9286
2023-04-22T03:17:54.565Z,27.7286
2023-04-22T03:19:02.654Z,24.6643
2023-04-22T03:20:10.766Z,22.7643
2023-04-22T03:21:18.777Z,25.0643
2023-04-22T03:22:26.829Z,24.8143
2023-04-22T03:23:34.887Z,22.7143
2023-04-22T03:24:42.949Z,21.5214
2023-04-22T03:25:51.112Z,18.4571
2023-04-22T03:26:59.125Z,16.7571
2023-04-22T03:28:07.148Z,19.2500
2023-04-22T03:29:15.089Z,16.2429
2023-04-22T03:30:23.185Z,18.5071
2023-04-22T03:31:31.304Z,20.9571
2023-04-22T03:32:39.447Z,18.4357
2023-04-22T03:33:47.457Z,20.3929
2023-04-22T03:34:55.576Z,17.8857
2023-04-22T03:36:03.642Z,17.6929
2023-04-22T03:37:11.781Z,23.1929
2023-04-22T03:38:20.115Z,23.4143
2023-04-22T03:39:27.842Z,21.9071
2023-04-22T03:40:35.899Z,20.7429
2023-04-22T03:41:44.038Z,18.8429
2023-04-22T03:42:52.034Z,20.5857
2023-04-22T03:44:01.775Z,22.1000
2023-04-22T03:45:12.870Z,19.9333
2023-04-22T03:46:21.210Z,20.0857
2023-04-22T03:47:29.326Z,20.1857
2023-04-22T03:48:37.226Z,19.1643
2023-04-22T03:49:45.320Z,18.0929
2023-04-22T03:50:53.365Z,20.2071
2023-04-22T03:52:01.441Z,19.5714
2023-04-22T03:53:09.641Z,20.1643
2023-04-22T03:54:17.551Z,19.1071
2023-04-22T03:55:25.639Z,21.2071
2023-04-22T03:56:33.707Z,19.3286
2023-04-22T03:57:41.651Z,20.6357
2023-04-22T03:58:49.732Z,21.9786
2023-04-22T03:59:57.762Z,22.2000
2023-04-22T04:01:05.942Z,23.2929
2023-04-22T04:02:14.125Z,28.4786
2023-04-22T04:03:22.234Z,27.2000
2023-04-22T04:04:30.646Z,29.1929
2023-04-22T04:05:38.339Z,28.4714
2023-04-22T04:06:46.241Z,27.5071
2023-04-22T04:07:54.308Z,29.6500
2023-04-22T04:09:02.468Z,26.4000
2023-04-22T04:10:10.552Z,27.8643
2023-04-22T04:11:18.526Z,32.9857
2023-04-22T04:12:26.517Z,33.7571
2023-04-22T04:13:34.573Z,31.8500
2023-04-22T04:14:42.680Z,33.4786
2023-04-22T04:15:50.924Z,35.1500
2023-04-22T04:16:58.905Z,31.8143
2023-04-22T04:18:07.072Z,26.1857
2023-04-22T04:19:14.997Z,28.9286
2023-04-22T04:20:23.145Z,30.6357
2023-04-22T04:21:31.141Z,26.7357
2023-04-22T04:22:39.242Z,28.6429
2023-04-22T04:23:47.238Z,34.0714
2023-04-22T04:24:55.505Z,34.0000
2023-04-22T04:26:03.423Z,33.6429
2023-04-22T04:27:11.349Z,30.3286
2023-04-22T04:28:19.442Z,31.8857
2023-04-22T04:29:27.511Z,29.7071
2023-04-22T04:30:35.768Z,24.7214
2023-04-22T04:31:44.018Z,31.2000
2023-04-22T04:32:51.917Z,27.1000
2023-04-22T04:33:59.872Z,28.5357
2023-04-22T04:35:08.102Z,29.0357
2023-04-22T04:36:16.071Z,29.1000
2023-04-22T04:37:24.046Z,24.4000
2023-04-22T04:38:32.118Z,22.2071
2023-04-22T04:39:40.523Z,23.5786
2023-04-22T04:40:48.189Z,22.8429
2023-04-22T04:41:56.275Z,21.8500
2023-04-22T04:43:04.340Z,18.5143
2023-04-22T04:44:13.125Z,20.6929
2023-04-22T04:45:20.599Z,25.2357
2023-04-22T04:46:28.748Z,24.4071
2023-04-22T04:47:36.804Z,22.2929
2023-04-22T04:48:44.746Z,22.6714
2023-04-22T04:49:52.849Z,22.3500
2023-04-22T04:51:01.006Z,24.8643
2023-04-22T04:52:09.005Z,23.4214
2023-04-22T04:53:17.020Z,23.6143
2023-04-22T04:54:25.045Z,24.6214
2023-04-22T04:55:33.046Z,23.9786
2023-04-22T04:56:41.130Z,23.3214
2023-04-22T04:57:49.232Z,25.5071
2023-04-22T04:58:57.615Z,25.3643
2023-04-22T05:00:05.514Z,23.9714
2023-04-22T05:01:13.562Z,24.0643
2023-04-22T05:02:21.775Z,23.1143
2023-04-22T05:03:29.816Z,27.3214
2023-04-22T05:04:37.855Z,23.3571
2023-04-22T05:05:45.718Z,25.6643
2023-04-22T05:06:53.815Z,23.8857
2023-04-22T05:08:02.072Z,23.3714
2023-04-22T05:09:09.979Z,23.4071
2023-04-22T05:10:17.925Z,24.8643
2023-04-22T05:11:26.001Z,30.8571
2023-04-22T05:12:34.047Z,32.8500
2023-04-22T05:13:42.262Z,31.7929
2023-04-22T05:14:50.370Z,34.1571
2023-04-22T05:15:58.425Z,31.9286
2023-04-22T05:17:06.391Z,33.9643
2023-04-22T05:18:14.470Z,33.1214
2023-04-22T05:19:22.596Z,37.1714
2023-04-22T05:20:31.612Z,39.3571
2023-04-22T05:21:43.550Z,38.9600
2023-04-22T05:22:51.595Z,36.1143
2023-04-22T05:23:59.592Z,37.6429
2023-04-22T05:25:07.648Z,34.2429
2023-04-22T05:26:15.788Z,31.6071
2023-04-22T05:27:23.923Z,34.4429
2023-04-22T05:28:31.956Z,33.8286
2023-04-22T05:29:40.221Z,35.6857
2023-04-22T05:30:48.100Z,34.7143
2023-04-22T05:31:56.551Z,35.0214
2023-04-22T05:33:04.301Z,31.7571
2023-04-22T05:34:12.506Z,29.8071
2023-04-22T05:35:20.341Z,32.5286
2023-04-22T05:36:31.174Z,30.0286
2023-04-22T05:37:41.246Z,30.5000
2023-04-22T05:38:49.284Z,28.3857
2023-04-22T05:39:57.367Z,27.3429
2023-04-22T05:41:05.675Z,26.8000
2023-04-22T05:42:13.640Z,29.7143
2023-04-22T05:43:21.583Z,29.0214
2023-04-22T05:44:29.683Z,33.2429
2023-04-22T05:45:37.816Z,31.9143
2023-04-22T05:46:45.846Z,31.0500
2023-04-22T05:47:54.105Z,30.7000
2023-04-22T05:49:01.920Z,34.9357
2023-04-22T05:50:10.040Z,33.7429
2023-04-22T05:51:18.171Z,32.6143
2023-04-22T05:52:26.038Z,34.4000
2023-04-22T05:53:34.183Z,30.7929
2023-04-22T05:54:42.179Z,31.0786
2023-04-22T05:55:50.339Z,31.5143
2023-04-22T05:56:58.399Z,33.4643
2023-04-22T05:58:06.461Z,34.7929
2023-04-22T05:59:14.663Z,33.1357
2023-04-22T06:00:22.576Z,32.8143
2023-04-22T06:01:30.638Z,35.4571
2023-04-22T06:02:38.835Z,35.4286
2023-04-22T06:03:46.913Z,34.3214
2023-04-22T06:04:55.048Z,35.2643
2023-04-22T06:06:02.936Z,31.9286
2023-04-22T06:07:10.906Z,32.0000
2023-04-22T06:08:18.965Z,29.4357
2023-04-22T06:09:27.147Z,35.5357
2023-04-22T06:10:35.231Z,34.8500
2023-04-22T06:11:43.304Z,31.9357
2023-04-22T06:12:51.417Z,31.8786
2023-04-22T06:13:59.363Z,31.4571
2023-04-22T06:15:07.642Z,34.7714
2023-04-22T06:16:15.651Z,35.8071
2023-04-22T06:17:23.685Z,33.2786
2023-04-22T06:18:31.720Z,33.8857
2023-04-22T06:19:40.084Z,32.5786
2023-04-22T06:20:47.788Z,35.8714
2023-04-22T06:21:55.797Z,35.6714
2023-04-22T06:23:03.870Z,35.7929
2023-04-22T06:24:11.996Z,39.1643
2023-04-22T06:25:20.067Z,33.4929
2023-04-22T06:26:28.198Z,38.7571
2023-04-22T06:27:36.194Z,38.1286
2023-04-22T06:28:44.262Z,38.6286
2023-04-22T06:29:52.482Z,39.0714
2023-04-22T06:31:00.407Z,40.6571
2023-04-22T06:32:08.558Z,40.8429
2023-04-22T06:33:16.650Z,41.2500
2023-04-22T06:34:24.658Z,43.6429
2023-04-22T06:35:32.575Z,43.5643
2023-04-22T06:36:40.657Z,43.7571
2023-04-22T06:37:48.738Z,44.5714
2023-04-22T06:38:56.917Z,43.9643
2023-04-22T06:40:04.905Z,40.9429
2023-04-22T06:41:13.007Z,41.9714
2023-04-22T06:42:21.032Z,44.6571
2023-04-22T06:43:29.152Z,44.0071
2023-04-22T06:44:37.157Z,42.0571
2023-04-22T06:45:45.291Z,42.5357
2023-04-22T06:46:54.758Z,40.2929
2023-04-22T06:48:06.226Z,41.0667
2023-04-22T06:49:14.273Z,38.2571
2023-04-22T06:50:22.352Z,38.3857
2023-04-22T06:51:30.341Z,39.9857
2023-04-22T06:52:38.423Z,40.1929
2023-04-22T06:53:46.487Z,39.7357
2023-04-22T06:54:54.599Z,42.4071
2023-04-22T06:56:02.672Z,41.3143
2023-04-22T06:57:10.705Z,39.4500
2023-04-22T06:58:18.809Z,41.0143
2023-04-22T06:59:26.887Z,39.9429
2023-04-22T07:00:34.963Z,41.1214
2023-04-22T07:01:43.095Z,39.7500
2023-04-22T07:02:51.191Z,41.4714
2023-04-22T07:03:59.129Z,38.1214
2023-04-22T07:05:07.146Z,38.8357
2023-04-22T07:06:15.204Z,39.9857
2023-04-22T07:07:23.256Z,37.2000
2023-04-22T07:08:31.463Z,36.7929
2023-04-22T07:09:39.708Z,34.6571
2023-04-22T07:10:47.558Z,35.3500
2023-04-22T07:11:55.571Z,39.4286
2023-04-22T07:13:03.768Z,36.6071
2023-04-22T07:14:11.688Z,34.5786
2023-04-22T07:15:19.895Z,34.6714
2023-04-22T07:16:27.972Z,33.1714
2023-04-22T07:17:36.010Z,34.8857
2023-04-22T07:18:43.897Z,34.8429
2023-04-22T07:19:51.971Z,34.5286
2023-04-22T07:21:00.035Z,33.6571
2023-04-22T07:22:08.127Z,32.8500
2023-04-22T07:23:16.183Z,34.5786
2023-04-22T07:24:24.383Z,32.9000
2023-04-22T07:25:32.322Z,31.7214
2023-04-22T07:26:40.528Z,32.7143
2023-04-22T07:27:48.514Z,32.7643
2023-04-22T07:28:56.541Z,30.6000
2023-04-22T07:30:04.586Z,32.6429
2023-04-22T07:31:12.683Z,30.4357
2023-04-22T07:32:20.855Z,31.9500
2023-04-22T07:33:28.747Z,30.6714
2023-04-22T07:34:36.791Z,30.5929
2023-04-22T07:35:44.829Z,30.3429
2023-04-22T07:36:52.870Z,28.9714
2023-04-22T07:38:01.035Z,30.0071
2023-04-22T07:39:09.251Z,29.8000
2023-04-22T07:40:17.165Z,27.3786
2023-04-22T07:41:25.245Z,30.2643
2023-04-22T07:42:33.415Z,29.0143
2023-04-22T07:43:41.355Z,28.3714
2023-04-22T07:44:49.455Z,26.6500
2023-04-22T07:45:57.538Z,28.7857
2023-04-22T07:47:05.690Z,28.7214
2023-04-22T07:48:13.622Z,27.3429
2023-04-22T07:49:21.632Z,27.3000
2023-04-22T07:50:29.731Z,28.0286
2023-04-22T07:51:37.827Z,28.0571
2023-04-22T07:52:45.940Z,27.8071
2023-04-22T07:53:53.912Z,26.8286
2023-04-22T07:55:02.162Z,28.3571
2023-04-22T07:56:10.105Z,26.8286
2023-04-22T07:57:18.151Z,26.2357
2023-04-22T07:58:26.234Z,26.6786
2023-04-22T07:59:34.300Z,27.5571
2023-04-22T08:00:42.494Z,27.8000
2023-04-22T08:01:50.651Z,26.1357
2023-04-22T08:02:58.577Z,26.4643
2023-04-22T08:04:06.656Z,24.7143
2023-04-22T08:05:14.634Z,27.2929
2023-04-22T08:06:23.022Z,26.1143
2023-04-22T08:07:33.394Z,26.1214
2023-04-22T08:08:43.734Z,24.5533
2023-04-22T08:09:51.939Z,24.9714
2023-04-22T08:10:59.932Z,25.7786
2023-04-22T08:12:07.906Z,25.7857
2023-04-22T08:13:18.136Z,24.5643
2023-04-22T08:14:28.877Z,23.3667
2023-04-22T08:15:36.940Z,24.1571
2023-04-22T08:16:44.935Z,25.3214
2023-04-22T08:17:53.039Z,24.5857
2023-04-22T08:19:01.280Z,24.4786
2023-04-22T08:20:09.263Z,24.5357
2023-04-22T08:21:17.295Z,25.0857
2023-04-22T08:22:25.344Z,23.2429
2023-04-22T08:23:33.488Z,25.1500
2023-04-22T08:24:41.444Z,23.5714
2023-04-22T08:25:49.583Z,23.2929
2023-04-22T08:26:57.617Z,24.1929
2023-04-22T08:28:05.707Z,24.8357
2023-04-22T08:29:13.743Z,22.7357
2023-04-22T08:30:21.741Z,23.1857
2023-04-22T08:31:29.772Z,21.1143
2023-04-22T08:32:37.877Z,22.0214
2023-04-22T08:33:46.083Z,25.8929
2023-04-22T08:34:57.720Z,31.2500
2023-04-22T08:36:06.984Z,29.4867
2023-04-22T08:37:15.065Z,21.7929
2023-04-22T08:38:23.056Z,18.9071
2023-04-22T08:39:31.298Z,17.2286
2023-04-22T08:40:39.349Z,17.8286
2023-04-22T08:41:47.276Z,18.1786
2023-04-22T08:42:55.425Z,16.4286
2023-04-22T08:44:03.334Z,17.4714
2023-04-22T08:45:11.436Z,15.6929
2023-04-22T08:46:19.471Z,16.6714
2023-04-22T08:47:27.625Z,27.6500
2023-04-22T08:48:35.734Z,28.0357
2023-04-22T08:49:43.641Z,12.7429
2023-04-22T08:50:51.898Z,15.1000
2023-04-22T08:51:59.971Z,15.1786
2023-04-22T08:53:07.912Z,13.9786
2023-04-22T08:54:16.062Z,14.4500
2023-04-22T08:55:24.040Z,16.8143
2023-04-22T08:56:32.125Z,20.3286
2023-04-22T08:57:40.196Z,15.8214
2023-04-22T08:58:48.231Z,17.9786
2023-04-22T08:59:56.242Z,22.4786
2023-04-22T09:01:04.318Z,50.0000
2023-04-22T09:02:12.543Z,22.8429
2023-04-22T09:03:20.574Z,16.6643
2023-04-22T09:04:28.604Z,15.8500
2023-04-22T09:05:36.687Z,17.7071
2023-04-22T09:06:44.664Z,20.7786
2023-04-22T09:07:52.872Z,15.5429
2023-04-22T09:09:00.826Z,17.7286
2023-04-22T09:10:08.862Z,27.3357
2023-04-22T09:11:16.911Z,28.8357
2023-04-22T09:12:24.994Z,15.3857
2023-04-22T09:13:33.014Z,15.5000
2023-04-22T09:14:41.031Z,13.4571
2023-04-22T09:15:49.075Z,17.9500
2023-04-22T09:16:57.388Z,15.7214
2023-04-22T09:18:05.295Z,14.8929
2023-04-22T09:19:13.429Z,16.1714
2023-04-22T09:20:21.488Z,15.1214
2023-04-22T09:21:29.494Z,14.5286
2023-04-22T09:22:37.523Z,15.2929
2023-04-22T09:23:45.720Z,15.1214
2023-04-22T09:24:53.723Z,14.5071
2023-04-22T09:26:01.744Z,15.0429
2023-04-22T09:27:09.768Z,15.1786
2023-04-22T09:28:17.919Z,14.9071
2023-04-22T09:29:25.837Z,13.1786
2023-04-22T09:30:34.082Z,13.6571
2023-04-22T09:31:41.994Z,14.0714
2023-04-22T09:32:50.146Z,14.3857
2023-04-22T09:33:58.146Z,13.4857
2023-04-22T09:35:06.311Z,11.6929
2023-04-22T09:36:14.291Z,17.8071
2023-04-22T09:37:22.337Z,14.2286
2023-04-22T09:38:30.432Z,13.4357
2023-04-22T09:39:38.711Z,14.1214
2023-04-22T09:40:46.488Z,12.2571
2023-04-22T09:41:54.659Z,12.9786
2023-04-22T09:43:02.601Z,14.1571
2023-04-22T09:44:10.711Z,14.1500
2023-04-22T09:45:18.940Z,13.6929
2023-04-22T09:46:26.742Z,13.5857
2023-04-22T09:47:34.916Z,13.1000
2023-04-22T09:48:43.031Z,11.6857
2023-04-22T09:49:51.083Z,11.8643
2023-04-22T09:50:59.072Z,12.3500
2023-04-22T09:52:07.174Z,12.5786
2023-04-22T09:53:15.216Z,22.9714
2023-04-22T09:54:23.242Z,53.5357
2023-04-22T09:55:31.477Z,11.5214
2023-04-22T09:56:39.394Z,12.0786
2023-04-22T09:57:47.432Z,11.5929
2023-04-22T09:58:55.446Z,11.5500
2023-04-22T10:00:03.472Z,11.8286
2023-04-22T10:01:11.594Z,11.2143
2023-04-22T10:02:19.698Z,11.6071
2023-04-22T10:03:27.853Z,12.1571
2023-04-22T10:04:36.073Z,12.1143
2023-04-22T10:05:43.854Z,12.2429
2023-04-22T10:06:51.931Z,11.9071
2023-04-22T10:08:00.183Z,11.0000
2023-04-22T10:09:09.411Z,11.7714
2023-04-22T10:10:16.102Z,11.4357
2023-04-22T10:11:24.540Z,10.5286
2023-04-22T10:12:35.532Z,11.1714
2023-04-22T10:13:45.112Z,11.8933
2023-04-22T10:14:53.372Z,13.7429
2023-04-22T10:16:01.336Z,12.3571
2023-04-22T10:17:09.386Z,11.4643
2023-04-22T10:18:17.381Z,12.2571
2023-04-22T10:19:25.609Z,11.5929
2023-04-22T10:20:33.620Z,12.9714
2023-04-22T10:21:41.675Z,11.9000
2023-04-22T10:22:49.723Z,11.3929
2023-04-22T10:23:57.773Z,12.7214
2023-04-22T10:25:06.027Z,12.0429
2023-04-22T10:26:13.845Z,13.4714
2023-04-22T10:27:21.878Z,11.5143
2023-04-22T10:28:29.998Z,11.3000
2023-04-22T10:29:38.316Z,10.6786
2023-04-22T10:30:46.185Z,11.4929
2023-04-22T10:31:54.260Z,50.2500
2023-04-22T10:33:02.328Z,10.4786
2023-04-22T10:34:10.313Z,9.6071
2023-04-22T10:35:18.496Z,9.1214
2023-04-22T10:36:26.486Z,12.3357
2023-04-22T10:37:34.514Z,12.1500
2023-04-22T10:38:42.556Z,9.9143
2023-04-22T10:39:50.740Z,9.8214
2023-04-22T10:40:58.726Z,10.4357
2023-04-22T10:42:06.727Z,63.3071
2023-04-22T10:43:14.778Z,21.4571
2023-04-22T10:44:23.006Z,15.8071
2023-04-22T10:45:30.951Z,8.9000
2023-04-22T10:46:39.099Z,8.4429
2023-04-22T10:47:47.256Z,8.4929
2023-04-22T10:48:55.225Z,8.5429
2023-04-22T10:50:03.291Z,8.4429
2023-04-22T10:51:11.506Z,8.1929
2023-04-22T10:52:19.531Z,6.6143
2023-04-22T10:53:27.568Z,7.0929
2023-04-22T10:54:35.606Z,7.5571
2023-04-22T10:55:43.780Z,7.6357
2023-04-22T10:56:57.584Z,8.7714
2023-04-22T10:58:04.648Z,7.9067
2023-04-22T10:59:12.738Z,8.4357
2023-04-22T11:00:20.861Z,6.1214
2023-04-22T11:01:28.917Z,6.3500
2023-04-22T11:02:36.951Z,6.3571
2023-04-22T11:03:45.038Z,6.9071
2023-04-22T11:04:53.083Z,6.0286
2023-04-22T11:06:01.081Z,6.1857
2023-04-22T11:07:09.251Z,5.2643
2023-04-22T11:08:17.201Z,5.3071
2023-04-22T11:09:25.161Z,4.9500
2023-04-22T11:10:33.284Z,6.7214
2023-04-22T11:11:41.328Z,5.7143
2023-04-22T11:12:49.435Z,5.4429
2023-04-22T11:13:57.482Z,4.4429
2023-04-22T11:15:05.615Z,5.0714
2023-04-22T11:16:13.659Z,4.5357
2023-04-22T11:17:21.704Z,3.8143
2023-04-22T11:18:29.758Z,4.3071
2023-04-22T11:19:38.212Z,6.1929
2023-04-22T11:20:45.932Z,3.2500
2023-04-22T11:21:54.088Z,3.9286
2023-04-22T11:23:02.093Z,3.8214
2023-04-22T11:24:10.033Z,2.7643
2023-04-22T11:25:18.077Z,4.3786
2023-04-22T11:26:26.182Z,3.5143
2023-04-22T11:27:34.234Z,3.0714
2023-04-22T11:28:42.344Z,4.0357
2023-04-22T11:29:50.391Z,3.4429
2023-04-22T11:30:58.469Z,4.4857
2023-04-22T11:32:06.426Z,4.2000
2023-04-22T11:33:14.515Z,4.3000
2023-04-22T11:34:22.688Z,3.4143
2023-04-22T11:35:30.809Z,5.4643
2023-04-22T11:36:38.820Z,5.4500
2023-04-22T11:37:46.863Z,4.9143
2023-04-22T11:38:54.811Z,4.8929
2023-04-22T11:40:21.373Z,3.9571
2023-04-22T11:41:15.897Z,4.2400
2023-04-22T11:42:24.079Z,4.9929
2023-04-22T11:43:31.908Z,4.2429
2023-04-22T11:44:39.975Z,6.4071
2023-04-22T11:45:48.094Z,4.5714
2023-04-22T11:46:56.317Z,4.9143
2023-04-22T11:48:04.220Z,4.9857
2023-04-22T11:49:12.373Z,4.2357
2023-04-22T11:50:20.241Z,3.7357
2023-04-22T11:51:28.347Z,3.2857
2023-04-22T11:52:36.372Z,4.0214
2023-04-22T11:53:44.454Z,4.8357
2023-04-22T11:54:52.495Z,3.4357
2023-04-22T11:56:00.713Z,5.2143
2023-04-22T11:57:08.784Z,3.9857
2023-04-22T11:58:16.703Z,3.5571
2023-04-22T11:59:24.923Z,3.6214
2023-04-22T12:00:32.945Z,5.5929
2023-04-22T12:01:41.118Z,3.9429
2023-04-22T12:02:49.132Z,5.6286
2023-04-22T12:03:57.208Z,4.6000
2023-04-22T12:05:05.127Z,4.7000
2023-04-22T12:06:13.097Z,3.9000
2023-04-22T12:07:21.186Z,3.5143
2023-04-22T12:08:29.238Z,4.2286
2023-04-22T12:09:37.484Z,3.0857
2023-04-22T12:10:45.384Z,3.4786
2023-04-22T12:11:53.434Z,3.6000
2023-04-22T12:13:01.578Z,6.3000
2023-04-22T12:14:09.569Z,3.9429
2023-04-22T12:15:18.751Z,3.8857
2023-04-22T12:16:25.749Z,3.1071
2023-04-22T12:17:33.727Z,3.5143
2023-04-22T12:18:41.799Z,4.4500
2023-04-22T12:19:49.916Z,3.8000
2023-04-22T12:20:58.001Z,4.5429
2023-04-22T12:22:06.246Z,3.6857
2023-04-22T12:23:14.012Z,4.4071
2023-04-22T12:24:22.124Z,5.2286
2023-04-22T12:25:30.145Z,4.9786
2023-04-22T12:26:38.202Z,3.4500
2023-04-22T12:27:46.257Z,4.1643
2023-04-22T12:28:54.318Z,3.8214
2023-04-22T12:30:02.466Z,3.9000
2023-04-22T12:31:10.558Z,4.1714
2023-04-22T12:32:18.550Z,4.3071
2023-04-22T12:33:26.554Z,3.7786
2023-04-22T12:34:34.653Z,4.7643
2023-04-22T12:35:42.763Z,4.4857
2023-04-22T12:36:50.753Z,5.2571
2023-04-22T12:37:58.830Z,4.4714
2023-04-22T12:39:06.861Z,4.6500
2023-04-22T12:40:14.960Z,5.5357
2023-04-22T12:41:23.281Z,4.0286
2023-04-22T12:42:31.138Z,4.6357
2023-04-22T12:43:39.235Z,5.9000
2023-04-22T12:44:47.188Z,6.4214
2023-04-22T12:45:55.329Z,4.4071
2023-04-22T12:47:03.310Z,4.3071
2023-04-22T12:48:11.717Z,4.7643
2023-04-22T12:49:19.477Z,4.1714
2023-04-22T12:50:27.621Z,3.6214
2023-04-22T12:51:35.955Z,4.8571
2023-04-22T12:52:43.651Z,4.0000
2023-04-22T12:53:51.691Z,3.5429
2023-04-22T12:54:59.772Z,4.0429
2023-04-22T12:56:07.896Z,3.0929
2023-04-22T12:57:15.866Z,3.1500
2023-04-22T12:58:23.912Z,4.9571
2023-04-22T12:59:32.109Z,4.3214
2023-04-22T13:00:40.119Z,3.7071
2023-04-22T13:01:48.267Z,3.3786
2023-04-22T13:02:56.307Z,4.7143
2023-04-22T13:04:04.543Z,5.3714
2023-04-22T13:05:12.442Z,4.0143
2023-04-22T13:06:20.472Z,4.5143
2023-04-22T13:07:28.382Z,3.5571
2023-04-22T13:08:36.459Z,3.3929
2023-04-22T13:09:44.515Z,5.0071
2023-04-22T13:10:52.685Z,2.9857
2023-04-22T13:12:00.794Z,2.7714
2023-04-22T13:14:21.694Z,2.5333
2023-04-22T13:15:29.798Z,4.1500
2023-04-22T13:16:37.962Z,4.5571
2023-04-22T13:17:47.624Z,3.3429
2023-04-22T13:18:58.817Z,3.3000
2023-04-22T13:20:06.798Z,3.4714
2023-04-22T13:21:14.902Z,5.1929
2023-04-22T13:22:22.932Z,4.9071
2023-04-22T13:23:31.130Z,4.1714
2023-04-22T13:24:39.126Z,3.7500
2023-04-22T13:25:47.131Z,3.7643
2023-04-22T13:26:55.289Z,2.8643
2023-04-22T13:28:03.315Z,3.2071
2023-04-22T13:29:11.392Z,3.1500
2023-04-22T13:30:19.508Z,3.3286
2023-04-22T13:31:27.505Z,4.0500
2023-04-22T13:32:35.549Z,3.4071
2023-04-22T13:33:43.565Z,3.4357
2023-04-22T13:34:51.640Z,4.4214
2023-04-22T13:35:59.811Z,5.4429
2023-04-22T13:37:07.746Z,3.8286
2023-04-22T13:38:15.824Z,3.0714
2023-04-22T13:39:23.874Z,2.8214
2023-04-22T13:40:32.035Z,3.8786
2023-04-22T13:41:40.117Z,3.4143
2023-04-22T13:42:48.152Z,2.4071
2023-04-22T13:43:56.260Z,4.2143
2023-04-22T13:45:04.316Z,5.3571
2023-04-22T13:46:12.377Z,4.0714
2023-04-22T13:47:20.490Z,3.3429
2023-04-22T13:48:28.675Z,3.5429
2023-04-22T13:49:36.491Z,3.9500
2023-04-22T13:50:44.578Z,5.7857
2023-04-22T13:51:52.586Z,4.3857